Terminal Aerodrome Forecast
Issued by NWS

Current Version | Previous Version | Text Only | Print | Product List | Glossary On
Versions: 1 2 3 4 5 6 7 8 9 10 11 12 13 14 15 16 17 18 19
885
FTUS46 KSGX 251120
TAFSNA
TAF
KSNA 251120Z 2512/2612 VRB03KT P6SM OVC008
     FM251400 VRB04KT P6SM BKN010
     FM251530 VRB04KT P6SM SCT013
     FM252000 21009KT P6SM FEW250
     FM260100 VRB04KT P6SM SCT012
     FM260400 VRB03KT P6SM OVC010=

USA.gov is the U.S. government's official web portal to all federal, state and local government web resources and services.